Time;durP1;ratioP1;P1;durP2;ratioP2;P2;SDS_P1;SDS_P2;PMS_P1;PMS_P2;Temp;Humidity;BMP_temperature;BMP_pressure;BME280_temperature;BME280_humidity;BME280_pressure;Samples;Min_cycle;Max_cycle;Signal;HPM_P1;HPM_P2
2022/07/27 00:00:55;;;;;;;9.68;6.65;;;;;;;19.10;98.62;90658.44;5012491;28;20025;-68
2022/07/27 00:03:22;;;;;;;11.35;7.13;;;;;;;19.13;98.01;90653.09;5012442;28;20030;-68
2022/07/27 00:05:47;;;;;;;11.70;7.07;;;;;;;19.17;97.25;90655.84;5012238;28;20132;-68
2022/07/27 00:08:13;;;;;;;11.60;7.28;;;;;;;19.24;96.47;90665.91;5012601;28;20041;-68
2022/07/27 00:10:38;;;;;;;10.15;7.10;;;;;;;19.25;96.30;90659.38;5012472;28;20511;-68
2022/07/27 00:13:05;;;;;;;9.60;7.05;;;;;;;19.27;95.83;90660.59;5012327;28;20559;-68
2022/07/27 00:15:32;;;;;;;9.32;6.90;;;;;;;19.28;96.08;90664.84;5012330;28;20034;-68
2022/07/27 00:17:59;;;;;;;10.43;6.75;;;;;;;19.13;96.52;90650.41;5012052;28;20034;-69
2022/07/27 00:20:29;;;;;;;10.13;6.38;;;;;;;19.13;97.11;90657.72;5012089;28;20566;-69
2022/07/27 00:22:54;;;;;;;9.07;6.35;;;;;;;19.13;96.96;90655.03;5011922;28;20046;-69
2022/07/27 00:25:20;;;;;;;7.55;5.43;;;;;;;19.17;97.10;90661.22;5012179;28;20049;-69
2022/07/27 00:27:46;;;;;;;8.85;6.13;;;;;;;19.13;97.17;90655.03;5012063;28;20033;-69
2022/07/27 00:30:12;;;;;;;8.65;6.13;;;;;;;19.14;97.27;90659.28;5011870;28;20026;-69
2022/07/27 00:32:37;;;;;;;8.77;6.40;;;;;;;19.05;98.00;90666.84;5011981;28;20236;-69
2022/07/27 00:35:03;;;;;;;9.95;6.68;;;;;;;18.91;100.00;90659.34;5011977;28;20116;-69
2022/07/27 00:37:28;;;;;;;10.77;7.15;;;;;;;18.87;100.00;90663.16;5011789;28;20022;-69
2022/07/27 00:39:55;;;;;;;8.68;6.32;;;;;;;18.80;100.00;90659.22;5011985;28;20145;-69
2022/07/27 00:42:26;;;;;;;11.07;6.15;;;;;;;18.81;100.00;90662.69;5011815;28;20022;-69
2022/07/27 00:44:52;;;;;;;10.75;6.68;;;;;;;18.73;100.00;90669.13;5011807;28;20033;-69
2022/07/27 00:47:18;;;;;;;9.50;6.78;;;;;;;18.74;100.00;90673.38;5011718;28;20034;-68
2022/07/27 00:49:43;;;;;;;8.93;6.35;;;;;;;18.73;100.00;90674.50;5011606;28;20109;-68
2022/07/27 00:52:09;;;;;;;9.77;6.25;;;;;;;18.72;100.00;90672.97;5011629;28;20480;-68
2022/07/27 00:54:34;;;;;;;10.27;7.05;;;;;;;18.72;100.00;90671.03;5011567;28;20068;-68
2022/07/27 00:57:00;;;;;;;13.57;7.60;;;;;;;18.79;100.00;90665.75;5011574;28;20024;-68
2022/07/27 00:59:26;;;;;;;10.23;6.95;;;;;;;18.77;100.00;90657.25;5011460;28;20030;-69
2022/07/27 01:01:52;;;;;;;9.32;6.60;;;;;;;18.77;100.00;90657.25;5011435;28;20076;-68
2022/07/27 01:04:17;;;;;;;9.60;6.40;;;;;;;18.82;100.00;90653.47;5011504;28;20042;-68
2022/07/27 01:06:43;;;;;;;14.90;7.28;;;;;;;18.79;100.00;90649.59;5011300;28;20455;-69
2022/07/27 01:11:52;;;;;;;10.00;6.72;;;;;;;18.66;100.00;90661.72;5011384;28;20447;-68
2022/07/27 01:14:19;;;;;;;10.98;6.97;;;;;;;18.68;100.00;90659.44;5011215;28;20030;-68
2022/07/27 01:16:44;;;;;;;9.60;6.80;;;;;;;18.66;100.00;90655.56;5011619;28;20029;-69
2022/07/27 01:19:11;;;;;;;9.35;6.68;;;;;;;18.63;100.00;90654.38;5011317;28;20107;-69
2022/07/27 01:21:37;;;;;;;9.82;7.03;;;;;;;18.65;100.00;90643.22;5011222;28;20034;-69
2022/07/27 01:24:03;;;;;;;12.85;6.78;;;;;;;18.64;100.00;90655.94;5011100;28;20107;-69
2022/07/27 01:26:29;;;;;;;9.55;6.55;;;;;;;18.55;100.00;90658.84;5011082;28;20030;-70
2022/07/27 01:28:59;;;;;;;9.15;6.25;;;;;;;18.53;100.00;90660.34;5010817;28;20045;-70
2022/07/27 01:31:26;;;;;;;12.43;6.80;;;;;;;18.44;100.00;90657.13;5010811;28;20042;-69
2022/07/27 01:33:52;;;;;;;11.15;6.90;;;;;;;18.41;100.00;90653.25;5011156;28;20034;-68
2022/07/27 01:36:17;;;;;;;9.70;6.78;;;;;;;18.44;100.00;90660.59;5011110;28;20038;-69
2022/07/27 01:38:44;;;;;;;11.00;7.43;;;;;;;18.45;100.00;90667.53;5011123;28;20041;-69
2022/07/27 01:41:09;;;;;;;10.35;7.28;;;;;;;18.40;100.00;90661.69;5010954;28;20062;-69
2022/07/27 01:43:35;;;;;;;11.73;7.03;;;;;;;18.36;100.00;90666.25;5010958;28;20060;-69
2022/07/27 01:46:00;;;;;;;9.02;6.57;;;;;;;18.38;100.00;90672.06;5011225;28;20447;-69
2022/07/27 01:48:26;;;;;;;8.80;6.88;;;;;;;18.39;100.00;90674.38;5011045;28;20029;-69
2022/07/27 01:50:52;;;;;;;10.20;7.15;;;;;;;18.41;100.00;90671.31;5010892;28;20026;-70
2022/07/27 01:53:19;;;;;;;12.32;7.45;;;;;;;18.46;100.00;90673.69;5010926;28;20036;-69
2022/07/27 01:55:46;;;;;;;9.07;6.68;;;;;;;18.45;100.00;90674.84;5010974;28;20109;-69
2022/07/27 01:58:11;;;;;;;10.77;7.07;;;;;;;18.41;100.00;90687.47;5010911;28;20037;-69
2022/07/27 02:00:37;;;;;;;10.13;6.93;;;;;;;18.35;100.00;90678.16;5010946;28;20030;-69
2022/07/27 02:03:05;;;;;;;11.65;6.90;;;;;;;18.34;100.00;90682.00;5010858;28;20037;-69
2022/07/27 02:05:31;;;;;;;12.77;8.35;;;;;;;18.23;100.00;90690.69;5158812;23;20523;-68
2022/07/27 02:07:56;;;;;;;12.68;7.97;;;;;;;18.12;100.00;90688.94;5011005;28;20083;-68
2022/07/27 02:10:22;;;;;;;11.80;8.57;;;;;;;18.06;100.00;90688.47;5010498;28;20049;-68
2022/07/27 02:12:49;;;;;;;11.75;7.38;;;;;;;18.03;100.00;90685.75;5010718;28;20160;-68
2022/07/27 02:15:18;;;;;;;12.18;7.45;;;;;;;18.03;100.00;90688.44;5010602;28;20026;-68
2022/07/27 02:17:44;;;;;;;9.73;7.10;;;;;;;18.01;100.00;90691.47;5010729;28;20502;-68
2022/07/27 02:20:10;;;;;;;10.95;7.13;;;;;;;17.91;100.00;90692.06;5010830;28;20026;-68
2022/07/27 02:22:35;;;;;;;8.57;6.75;;;;;;;17.91;100.00;90692.06;5010748;28;20065;-68
2022/07/27 02:25:02;;;;;;;11.63;7.22;;;;;;;17.93;100.00;90689.78;5010626;28;20054;-68
2022/07/27 02:27:28;;;;;;;13.18;7.80;;;;;;;17.93;100.00;90689.78;5010620;28;20026;-68
2022/07/27 02:29:53;;;;;;;9.68;6.72;;;;;;;17.96;100.00;90692.53;5010535;28;20195;-68
2022/07/27 02:32:20;;;;;;;9.85;6.80;;;;;;;17.94;100.00;90699.41;5010571;28;20026;-68
2022/07/27 02:34:46;;;;;;;10.68;7.47;;;;;;;17.86;100.00;90700.44;5010525;28;20087;-68
2022/07/27 02:37:11;;;;;;;11.32;7.18;;;;;;;17.85;100.00;90698.88;5010628;28;20113;-68
2022/07/27 02:39:37;;;;;;;11.15;6.78;;;;;;;17.82;100.00;90703.06;5010595;28;20026;-68
2022/07/27 02:42:03;;;;;;;12.88;8.63;;;;;;;17.77;100.00;90691.81;5011943;28;20503;-68
2022/07/27 02:44:28;;;;;;;9.85;7.57;;;;;;;17.74;100.00;90698.69;5013866;28;20107;-68
2022/07/27 02:46:54;;;;;;;11.90;6.95;;;;;;;17.70;100.00;90702.47;5014064;28;20103;-68
2022/07/27 02:49:20;;;;;;;11.25;7.25;;;;;;;17.62;100.00;90696.13;5013987;28;20041;-68
2022/07/27 02:51:50;;;;;;;14.27;7.28;;;;;;;17.62;100.00;90696.91;5013976;28;20033;-68
2022/07/27 02:54:17;;;;;;;9.95;7.20;;;;;;;17.67;100.00;90698.53;5013628;28;20506;-68
2022/07/27 02:56:42;;;;;;;11.55;7.18;;;;;;;17.75;100.00;90707.53;5013683;28;20030;-68
2022/07/27 02:59:07;;;;;;;14.40;8.40;;;;;;;17.75;100.00;90704.84;5013712;28;20419;-68
2022/07/27 03:01:33;;;;;;;10.48;6.88;;;;;;;17.70;100.00;90697.09;5013929;28;20065;-68
2022/07/27 03:03:58;;;;;;;10.35;7.43;;;;;;;17.60;100.00;90704.56;5013500;28;20487;-68
2022/07/27 03:06:24;;;;;;;10.93;6.95;;;;;;;17.55;100.00;90706.78;5011991;28;20046;-68
2022/07/27 03:08:49;;;;;;;10.15;6.75;;;;;;;17.51;100.00;90709.38;5013545;28;20037;-68
2022/07/27 03:11:15;;;;;;;11.60;7.60;;;;;;;17.56;100.00;90706.41;5013541;28;20034;-68
2022/07/27 03:13:41;;;;;;;10.27;7.32;;;;;;;17.60;100.00;90709.94;5013408;28;20241;-68
2022/07/27 03:16:06;;;;;;;11.95;7.60;;;;;;;17.66;100.00;90707.72;5013279;28;20105;-68
2022/07/27 03:18:32;;;;;;;13.32;7.50;;;;;;;17.71;100.00;90709.41;5013399;28;20060;-68
2022/07/27 03:20:57;;;;;;;9.27;6.57;;;;;;;17.66;100.00;90713.88;5013593;28;20033;-69
2022/07/27 03:23:23;;;;;;;9.68;7.32;;;;;;;17.69;100.00;90717.81;5013324;28;20026;-69
2022/07/27 03:25:48;;;;;;;9.95;6.55;;;;;;;17.74;100.00;90716.75;5013426;28;20402;-69
2022/07/27 03:28:14;;;;;;;13.73;8.15;;;;;;;17.78;100.00;90717.59;5013457;28;20388;-69
2022/07/27 03:30:40;;;;;;;9.90;6.95;;;;;;;17.86;100.00;90711.22;5013167;28;20099;-69
2022/07/27 03:33:05;;;;;;;8.02;5.68;;;;;;;17.93;100.00;90714.78;5013139;28;20041;-69
2022/07/27 03:35:31;;;;;;;9.57;6.57;;;;;;;17.94;100.00;90712.88;5012872;28;20041;-70
2022/07/27 03:37:56;;;;;;;8.27;6.30;;;;;;;17.94;100.00;90708.28;5012776;28;20041;-70
2022/07/27 03:40:22;;;;;;;10.18;6.32;;;;;;;18.02;100.00;90709.19;5012816;28;20026;-69
2022/07/27 03:42:47;;;;;;;8.45;5.93;;;;;;;18.05;100.00;90711.16;5012915;28;20045;-69
2022/07/27 03:45:13;;;;;;;10.35;6.82;;;;;;;18.02;100.00;90703.81;5012717;28;20080;-69
2022/07/27 03:47:38;;;;;;;9.15;6.05;;;;;;;18.06;100.00;90710.00;5012705;28;20037;-69
2022/07/27 03:50:04;;;;;;;10.00;6.75;;;;;;;18.11;100.00;90715.09;5012723;28;20408;-69
2022/07/27 03:52:30;;;;;;;11.10;7.18;;;;;;;18.16;100.00;90716.72;5012063;28;20030;-69
2022/07/27 03:54:56;;;;;;;9.18;6.55;;;;;;;18.20;100.00;90714.88;5012549;28;20029;-67
2022/07/27 03:57:23;;;;;;;7.78;6.43;;;;;;;18.30;100.00;90726.94;5012680;28;20531;-68
2022/07/27 03:59:48;;;;;;;10.60;6.80;;;;;;;18.43;100.00;90722.91;5012479;28;20033;-68
2022/07/27 04:02:13;;;;;;;9.15;6.32;;;;;;;18.47;100.00;90734.53;5012444;28;20022;-69
2022/07/27 04:04:39;;;;;;;9.77;6.93;;;;;;;18.50;100.00;90721.13;5012069;28;20037;-69
2022/07/27 04:07:04;;;;;;;9.43;6.35;;;;;;;18.59;100.00;90723.53;5012394;28;20088;-69
2022/07/27 04:09:30;;;;;;;9.90;6.80;;;;;;;18.74;99.02;90735.34;5011009;28;20022;-67
2022/07/27 04:11:55;;;;;;;10.52;6.68;;;;;;;18.79;97.80;90730.44;5012254;28;20022;-68
2022/07/27 04:14:21;;;;;;;11.30;7.50;;;;;;;18.83;97.95;90735.88;5012012;28;20458;-68
2022/07/27 04:16:46;;;;;;;11.02;6.88;;;;;;;18.88;97.48;90724.78;5012341;28;20030;-68
2022/07/27 04:19:12;;;;;;;9.00;6.90;;;;;;;19.03;96.57;90739.22;5011322;28;20510;-67
2022/07/27 04:21:37;;;;;;;12.25;7.75;;;;;;;19.03;97.50;90736.53;5011671;28;20030;-66
2022/07/27 04:24:04;;;;;;;9.10;6.60;;;;;;;18.98;98.00;90731.47;4994559;28;20058;-65
2022/07/27 04:26:30;;;;;;;9.68;6.72;;;;;;;18.98;99.93;90736.84;4992231;28;20381;-66
2022/07/27 04:28:55;;;;;;;9.73;6.93;;;;;;;19.03;100.00;90736.53;4992330;28;20026;-66
2022/07/27 04:31:22;;;;;;;10.80;7.03;;;;;;;19.19;100.00;90739.84;4992380;28;20022;-66
2022/07/27 04:33:48;;;;;;;8.35;6.50;;;;;;;19.36;97.66;90731.19;4992286;28;20108;-66
2022/07/27 04:36:13;;;;;;;10.02;7.07;;;;;;;19.45;95.50;90723.59;4992025;28;20475;-66
2022/07/27 04:38:39;;;;;;;9.05;6.25;;;;;;;19.59;94.31;90739.22;4992177;28;20035;-66
2022/07/27 04:41:05;;;;;;;11.05;6.40;;;;;;;19.66;93.57;90742.00;4992347;28;20030;-65
2022/07/27 04:43:31;;;;;;;10.00;7.10;;;;;;;19.72;91.98;90747.84;4998106;28;20041;-67
2022/07/27 04:45:56;;;;;;;11.05;7.43;;;;;;;19.58;92.88;90742.28;5011715;28;20051;-69
2022/07/27 04:48:22;;;;;;;8.73;6.45;;;;;;;19.50;94.14;90744.09;5011762;28;20034;-69
2022/07/27 04:50:47;;;;;;;8.75;6.28;;;;;;;19.53;93.70;90740.66;5011838;28;20033;-69
2022/07/27 04:53:13;;;;;;;10.00;7.13;;;;;;;19.62;93.87;90743.09;5011718;28;20143;-69
2022/07/27 04:55:44;;;;;;;12.52;7.13;;;;;;;19.74;92.32;90754.44;5011599;28;20036;-69
2022/07/27 04:58:10;;;;;;;9.18;6.70;;;;;;;19.80;92.27;90748.69;5006959;28;20034;-69
2022/07/27 05:00:36;;;;;;;10.00;6.35;;;;;;;19.95;90.13;90755.81;4988254;28;20109;-73
2022/07/27 05:03:02;;;;;;;10.20;6.55;;;;;;;20.06;88.63;90762.09;4991784;28;20110;-68
2022/07/27 05:05:27;;;;;;;12.98;6.97;;;;;;;20.10;88.65;90751.34;4990611;28;20093;-69
2022/07/27 05:07:53;;;;;;;9.52;6.45;;;;;;;20.38;87.25;90765.13;4991544;28;20408;-69
2022/07/27 05:10:19;;;;;;;9.77;6.72;;;;;;;20.44;87.42;90763.66;4991329;28;20034;-68
2022/07/27 05:12:44;;;;;;;9.85;6.80;;;;;;;20.63;86.01;90754.53;4991034;28;20035;-69
2022/07/27 05:15:10;;;;;;;11.55;7.63;;;;;;;20.93;84.24;90759.78;4991369;28;20499;-69
2022/07/27 05:17:36;;;;;;;10.63;6.78;;;;;;;21.09;81.96;90763.00;4991279;28;20027;-68
2022/07/27 05:20:03;;;;;;;11.10;7.22;;;;;;;21.07;82.37;90754.50;4991394;28;20109;-68
2022/07/27 05:22:28;;;;;;;8.50;6.28;;;;;;;21.33;80.09;90756.22;4991316;28;20036;-69
2022/07/27 05:24:53;;;;;;;11.77;7.53;;;;;;;21.48;78.88;90767.91;5006279;28;20034;-69
2022/07/27 05:27:19;;;;;;;8.60;6.63;;;;;;;21.80;77.18;90752.59;4991195;28;20502;-69
2022/07/27 05:29:44;;;;;;;9.30;6.68;;;;;;;22.14;74.74;90762.41;4991047;28;20041;-69
2022/07/27 05:32:10;;;;;;;9.15;6.35;;;;;;;22.88;71.35;90764.44;4991410;28;20033;-69
2022/07/27 05:34:35;;;;;;;8.48;6.55;;;;;;;25.60;62.43;90770.97;4991285;28;20499;-69
2022/07/27 05:37:01;;;;;;;10.55;7.30;;;;;;;28.04;54.46;90763.19;4991205;28;20049;-69
2022/07/27 05:39:27;;;;;;;11.30;7.22;;;;;;;30.01;48.78;90771.28;4991230;28;20065;-69
2022/07/27 05:41:52;;;;;;;11.10;6.72;;;;;;;31.69;43.95;90767.13;4990987;28;20030;-69
2022/07/27 05:44:17;;;;;;;8.80;6.85;;;;;;;32.59;42.17;90773.13;4990638;28;20064;-69
2022/07/27 05:46:43;;;;;;;7.57;6.10;;;;;;;33.55;40.25;90772.25;4991165;28;20014;-69
2022/07/27 05:49:08;;;;;;;7.18;6.03;;;;;;;33.82;39.31;90772.34;4991118;28;20383;-69
2022/07/27 05:51:34;;;;;;;8.52;6.25;;;;;;;34.55;38.38;90777.16;5006377;28;20030;-69
2022/07/27 05:54:00;;;;;;;7.32;6.47;;;;;;;34.52;38.28;90770.56;4991156;28;20026;-70
2022/07/27 05:56:26;;;;;;;6.78;5.60;;;;;;;34.19;39.07;90775.16;4990951;28;20029;-69
2022/07/27 05:58:52;;;;;;;8.32;6.85;;;;;;;34.87;38.48;90773.00;4990783;28;20085;-70
2022/07/27 06:01:18;;;;;;;7.43;6.65;;;;;;;35.35;37.89;90781.50;4991155;28;20058;-69
2022/07/27 06:03:44;;;;;;;8.40;6.90;;;;;;;35.22;38.03;90778.94;4991177;28;20066;-69
2022/07/27 06:09:13;;;;;;;9.07;7.13;;;;;;;35.88;37.34;90778.22;5008563;28;20096;-70
2022/07/27 06:11:39;;;;;;;9.38;7.03;;;;;;;36.56;36.58;90770.06;5008443;28;20054;-69
2022/07/27 06:14:04;;;;;;;9.13;7.10;;;;;;;37.82;35.00;90768.47;4999943;28;20093;-71
2022/07/27 06:16:29;;;;;;;7.60;6.55;;;;;;;38.81;34.10;90775.81;4993121;28;20027;-69
2022/07/27 06:18:55;;;;;;;8.27;7.40;;;;;;;38.12;34.71;90765.59;4994832;28;20407;-69
2022/07/27 06:21:24;;;;;;;7.78;6.97;;;;;;;38.47;34.36;90774.63;4994769;28;20492;-70
2022/07/27 06:23:50;;;;;;;9.95;8.10;;;;;;;37.02;38.02;90778.75;4994595;28;20100;-70
2022/07/27 06:26:16;;;;;;;10.15;7.65;;;;;;;35.73;39.30;90764.28;4994614;28;20389;-70
2022/07/27 06:28:41;;;;;;;10.68;7.65;;;;;;;35.18;40.28;90769.25;4994138;28;20058;-69
2022/07/27 06:31:07;;;;;;;11.20;8.70;;;;;;;36.06;38.78;90769.78;4994553;28;20589;-70
2022/07/27 06:33:33;;;;;;;10.07;8.45;;;;;;;35.80;39.23;90769.44;4994388;28;20059;-68
2022/07/27 06:35:59;;;;;;;10.48;7.45;;;;;;;36.77;37.75;90780.06;4994298;28;20038;-70
2022/07/27 06:38:25;;;;;;;9.60;7.90;;;;;;;36.62;37.48;90773.72;4994379;28;20408;-70
2022/07/27 06:40:52;;;;;;;11.75;8.48;;;;;;;37.10;37.13;90777.13;4994341;28;20066;-70
2022/07/27 06:43:22;;;;;;;12.95;9.55;;;;;;;35.33;39.13;90772.88;4993975;28;20034;-67
2022/07/27 06:45:48;;;;;;;13.00;8.85;;;;;;;36.43;37.79;90772.31;4994167;28;20112;-67
2022/07/27 06:48:14;;;;;;;11.85;9.00;;;;;;;37.55;36.40;90772.31;4994274;28;20050;-66
2022/07/27 06:50:39;;;;;;;14.00;9.25;;;;;;;38.15;36.42;90770.94;4994135;28;20065;-68
2022/07/27 06:53:05;;;;;;;14.52;10.48;;;;;;;39.33;34.21;90781.41;4994272;28;20057;-67
2022/07/27 06:55:30;;;;;;;11.40;9.05;;;;;;;39.41;34.16;90781.72;4993993;28;20455;-67
2022/07/27 06:57:55;;;;;;;9.82;8.27;;;;;;;38.56;35.32;90777.28;4993618;28;20553;-67
2022/07/27 07:00:21;;;;;;;9.63;8.48;;;;;;;38.80;33.88;90768.72;4993997;28;20484;-68
2022/07/27 07:02:52;;;;;;;13.20;9.93;;;;;;;38.20;35.35;90770.28;4994007;28;20037;-67
2022/07/27 07:05:17;;;;;;;10.05;9.00;;;;;;;38.24;34.87;90762.50;4993692;28;20074;-67
2022/07/27 07:07:43;;;;;;;9.23;8.20;;;;;;;38.12;35.06;90768.38;4993929;28;20026;-67
2022/07/27 07:10:08;;;;;;;10.65;8.32;;;;;;;38.68;35.18;90766.34;4993870;28;20502;-67
2022/07/27 07:12:34;;;;;;;12.52;8.75;;;;;;;38.30;35.47;90768.13;4993415;28;20142;-67
2022/07/27 07:14:59;;;;;;;10.75;8.77;;;;;;;38.58;34.46;90763.66;4993751;28;20028;-68
2022/07/27 07:17:25;;;;;;;11.15;8.35;;;;;;;40.06;32.48;90766.03;4993650;28;20456;-67
2022/07/27 07:19:50;;;;;;;10.80;7.90;;;;;;;40.59;31.56;90763.78;4993716;28;20561;-65
2022/07/27 07:22:16;;;;;;;10.10;7.75;;;;;;;40.98;31.98;90755.56;4993891;28;20109;-67
2022/07/27 07:24:41;;;;;;;7.80;6.93;;;;;;;41.45;31.21;90772.66;4993461;28;20034;-67
2022/07/27 07:27:06;;;;;;;10.05;7.43;;;;;;;42.52;30.42;90767.75;4992199;28;20042;-67
2022/07/27 07:29:32;;;;;;;9.05;6.85;;;;;;;42.00;30.15;90766.31;4993644;28;20177;-67
2022/07/27 07:31:57;;;;;;;9.48;7.35;;;;;;;42.89;30.18;90768.09;4993524;28;20054;-68
2022/07/27 07:34:23;;;;;;;8.40;7.13;;;;;;;40.13;30.55;90767.59;4993445;28;20495;-66
2022/07/27 07:36:48;;;;;;;7.50;6.50;;;;;;;40.23;31.30;90771.69;4993582;28;20495;-67
2022/07/27 07:39:14;;;;;;;9.65;6.40;;;;;;;41.66;29.22;90779.56;4993430;28;20026;-67
2022/07/27 07:41:39;;;;;;;8.45;6.55;;;;;;;42.22;28.78;90768.31;4992870;28;20065;-67
2022/07/27 07:44:05;;;;;;;7.53;5.97;;;;;;;44.30;27.11;90770.69;4993180;28;20027;-67
2022/07/27 07:46:30;;;;;;;6.50;5.72;;;;;;;42.54;27.70;90776.38;4993508;28;20768;-66
2022/07/27 07:48:56;;;;;;;6.82;6.13;;;;;;;41.94;28.75;90775.97;4993202;28;20546;-67
2022/07/27 07:51:21;;;;;;;8.15;6.38;;;;;;;42.33;28.62;90776.69;4993021;28;20034;-67
2022/07/27 07:53:47;;;;;;;6.70;5.85;;;;;;;42.79;27.58;90771.72;4992946;28;20397;-67
2022/07/27 07:56:13;;;;;;;8.30;6.45;;;;;;;43.63;27.52;90772.75;4992397;28;20455;-66
2022/07/27 07:58:38;;;;;;;11.07;6.95;;;;;;;43.01;28.09;90763.97;4992751;28;20484;-67
2022/07/27 08:01:04;;;;;;;6.90;6.15;;;;;;;43.10;27.30;90773.38;4992671;28;20397;-67
2022/07/27 08:03:30;;;;;;;9.07;7.57;;;;;;;39.47;31.11;90774.19;4993049;28;20034;-67
2022/07/27 08:05:55;;;;;;;8.05;6.68;;;;;;;38.90;31.70;90772.88;4992493;28;20425;-67
2022/07/27 08:08:20;;;;;;;8.00;6.50;;;;;;;40.63;30.14;90767.84;4992754;28;20018;-67
2022/07/27 08:10:46;;;;;;;8.88;6.85;;;;;;;41.70;30.49;90771.69;4992567;28;20444;-67
2022/07/27 08:13:12;;;;;;;7.53;6.60;;;;;;;41.56;30.07;90769.88;4992373;28;20507;-67
2022/07/27 08:15:37;;;;;;;7.70;5.95;;;;;;;43.06;28.69;90770.81;4992563;28;20045;-67
2022/07/27 08:18:04;;;;;;;8.60;6.38;;;;;;;42.40;29.52;90772.59;4992519;28;20507;-68
2022/07/27 08:20:29;;;;;;;6.85;6.15;;;;;;;41.54;29.46;90767.59;4992621;28;20124;-68
2022/07/27 08:22:55;;;;;;;11.38;6.70;;;;;;;43.41;27.29;90767.34;4992748;28;20030;-67
2022/07/27 08:25:20;;;;;;;7.82;5.82;;;;;;;44.21;26.65;90769.75;4992542;28;20045;-67
2022/07/27 08:27:46;;;;;;;7.00;5.72;;;;;;;43.20;28.55;90766.16;4992614;28;20026;-67
2022/07/27 08:30:11;;;;;;;7.82;5.95;;;;;;;43.54;27.33;90759.06;4992480;28;20408;-67
2022/07/27 08:32:53;;;;;;;6.13;5.53;;;;;;;43.31;26.69;90758.50;4992499;28;20045;-67
2022/07/27 08:35:20;;;;;;;5.93;4.97;;;;;;;42.03;27.99;90772.91;4992671;28;20096;-67
2022/07/27 08:37:46;;;;;;;5.95;5.35;;;;;;;43.82;27.08;90766.53;4992390;28;20027;-67
2022/07/27 08:40:12;;;;;;;5.55;4.70;;;;;;;43.47;25.83;90758.88;4992294;28;20034;-68
2022/07/27 08:42:41;;;;;;;7.15;5.85;;;;;;;43.76;27.24;90768.63;4992291;28;20066;-67
2022/07/27 08:45:15;;;;;;;6.05;4.85;;;;;;;43.05;26.41;90770.06;4992173;28;20034;-67
2022/07/27 08:47:41;;;;;;;6.43;5.45;;;;;;;43.18;25.43;90763.13;4992283;28;20026;-67
2022/07/27 08:50:24;;;;;;;5.43;4.93;;;;;;;43.93;26.37;90764.38;4992190;28;20041;-68
2022/07/27 08:52:59;;;;;;;5.10;4.47;;;;;;;43.62;26.40;90762.84;4992114;28;20029;-67
2022/07/27 08:55:26;;;;;;;8.73;5.00;;;;;;;43.18;25.99;90758.28;4992051;28;20155;-67
2022/07/27 08:57:52;;;;;;;5.03;4.53;;;;;;;42.78;26.56;90751.38;4991849;28;20052;-67
2022/07/27 09:00:18;;;;;;;5.20;4.72;;;;;;;44.30;24.93;90751.06;4991985;28;20042;-67
2022/07/27 09:02:44;;;;;;;5.03;4.60;;;;;;;44.47;25.48;90748.81;4991998;28;20029;-67
2022/07/27 09:05:10;;;;;;;4.47;4.07;;;;;;;45.65;23.24;90750.91;4991777;28;20050;-67
2022/07/27 09:07:36;;;;;;;5.10;4.15;;;;;;;45.48;22.60;90750.38;4991865;28;20045;-67
2022/07/27 09:10:04;;;;;;;5.35;4.63;;;;;;;45.93;22.40;90762.47;4992136;28;20054;-68
2022/07/27 09:12:31;;;;;;;5.15;4.65;;;;;;;44.87;24.21;90761.13;4991780;28;20089;-67
2022/07/27 09:15:06;;;;;;;5.25;4.75;;;;;;;44.75;24.20;90748.50;4991743;28;20061;-67
2022/07/27 09:17:33;;;;;;;5.93;5.13;;;;;;;45.99;23.25;90759.53;4991753;28;20032;-67
2022/07/27 09:20:02;;;;;;;6.25;4.60;;;;;;;47.66;22.39;90754.72;4991605;28;20026;-67
2022/07/27 09:22:54;;;;;;;5.50;4.80;;;;;;;46.55;21.98;90761.38;4991723;28;20037;-67
2022/07/27 09:25:22;;;;;;;5.88;5.20;;;;;;;46.71;22.86;90760.31;4991627;28;20026;-67
2022/07/27 09:27:52;;;;;;;5.13;4.63;;;;;;;44.33;24.60;90750.00;4991715;28;20113;-67
2022/07/27 09:30:19;;;;;;;7.18;4.80;;;;;;;45.50;23.57;90753.41;4991644;28;20528;-67
2022/07/27 09:33:02;;;;;;;5.55;5.05;;;;;;;46.32;23.17;90757.44;4991657;28;20077;-68
2022/07/27 09:35:33;;;;;;;6.35;5.30;;;;;;;44.39;25.11;90750.72;4991754;28;20412;-67
2022/07/27 09:38:22;;;;;;;5.47;4.97;;;;;;;46.43;22.12;90752.41;4991614;28;20038;-67
2022/07/27 09:41:03;;;;;;;5.22;4.55;;;;;;;45.64;22.57;90746.59;4991528;28;20030;-68
2022/07/27 09:43:29;;;;;;;4.97;4.57;;;;;;;43.72;24.38;90742.94;4991414;28;20035;-68
2022/07/27 09:46:03;;;;;;;9.07;5.30;;;;;;;42.43;25.57;90749.19;4991482;28;20026;-67
2022/07/27 09:48:33;;;;;;;5.35;4.80;;;;;;;44.65;24.10;90738.94;4991403;28;20117;-67
2022/07/27 09:50:58;;;;;;;5.97;5.28;;;;;;;45.34;23.84;90752.38;4992927;28;20081;-67
2022/07/27 09:53:27;;;;;;;7.43;5.68;;;;;;;43.95;24.44;90749.84;4995696;28;20038;-67
2022/07/27 09:56:09;;;;;;;5.93;4.85;;;;;;;44.84;23.53;90738.97;4995421;28;20027;-67
2022/07/27 09:59:00;;;;;;;5.90;5.07;;;;;;;44.43;23.74;90739.94;4995316;28;20034;-66
2022/07/27 10:01:33;;;;;;;6.50;4.67;;;;;;;43.91;23.44;90735.38;4995494;28;20037;-67
2022/07/27 10:04:02;;;;;;;6.88;4.85;;;;;;;43.12;24.14;90734.41;4995067;28;20109;-66
2022/07/27 10:06:28;;;;;;;5.57;4.85;;;;;;;42.31;24.70;90734.50;4995026;28;20132;-67
2022/07/27 10:08:56;;;;;;;5.40;4.90;;;;;;;42.98;24.21;90730.69;4995067;28;20034;-67
2022/07/27 10:11:23;;;;;;;5.93;5.28;;;;;;;45.06;24.22;90730.28;4991232;28;20536;-67
2022/07/27 10:13:50;;;;;;;6.05;4.70;;;;;;;44.65;24.88;90727.72;4994540;28;20046;-68
2022/07/27 10:16:27;;;;;;;6.78;4.90;;;;;;;44.41;24.54;90725.69;4994341;28;20065;-67
2022/07/27 10:19:05;;;;;;;5.80;5.00;;;;;;;44.02;24.29;90723.25;4994808;28;20432;-68
2022/07/27 10:21:36;;;;;;;5.63;5.03;;;;;;;43.57;26.51;90727.22;4994780;28;20034;-67
2022/07/27 10:24:08;;;;;;;5.00;4.47;;;;;;;42.21;25.76;90730.44;4994512;28;20428;-67
2022/07/27 10:26:42;;;;;;;12.55;5.38;;;;;;;42.47;25.39;90725.28;4994471;28;20096;-67
2022/07/27 10:29:13;;;;;;;5.38;4.88;;;;;;;42.00;26.75;90734.81;4994758;28;20053;-69
2022/07/27 10:31:56;;;;;;;5.80;5.03;;;;;;;43.75;25.21;90733.47;4994725;28;20054;-68
2022/07/27 10:34:48;;;;;;;5.50;4.80;;;;;;;42.18;25.38;90725.88;4994836;28;20050;-68
2022/07/27 10:37:31;;;;;;;5.82;4.80;;;;;;;42.10;26.08;90722.84;4993132;28;20472;-67
2022/07/27 10:42:45;;;;;;;8.02;5.15;;;;;;;41.94;26.90;90723.63;4994306;28;20432;-67
2022/07/27 10:45:13;;;;;;;4.50;4.00;;;;;;;41.92;25.69;90728.19;4994300;28;20117;-67
2022/07/27 10:47:41;;;;;;;5.20;4.70;;;;;;;41.77;26.22;90729.25;4993803;28;20096;-67
2022/07/27 10:50:16;;;;;;;5.03;4.30;;;;;;;42.18;25.62;90723.09;4993986;28;20554;-67
2022/07/27 10:52:46;;;;;;;4.32;3.90;;;;;;;43.32;24.56;90717.22;4994024;28;20052;-67
2022/07/27 10:55:30;;;;;;;4.18;3.75;;;;;;;44.72;24.13;90708.25;4993649;28;20077;-67
2022/07/27 10:58:02;;;;;;;4.45;4.05;;;;;;;43.89;24.66;90707.84;4993852;28;20125;-67
2022/07/27 11:00:59;;;;;;;;;;;;;;;43.92;24.34;90689.22;4994094;28;20265;-67
2022/07/27 11:03:29;;;;;;;7.05;4.95;;;;;;;42.98;25.47;90700.63;4991483;28;19913;-67
2022/07/27 11:06:18;;;;;;;5.00;4.35;;;;;;;44.12;25.18;90699.22;4993739;28;20046;-67
2022/07/27 11:08:46;;;;;;;5.10;4.45;;;;;;;45.17;22.19;90699.22;4993864;28;20093;-67
2022/07/27 11:11:17;;;;;;;4.80;4.15;;;;;;;44.01;23.23;90705.69;4993764;28;20571;-67
2022/07/27 11:13:42;;;;;;;4.72;4.32;;;;;;;43.82;25.11;90697.22;4993636;28;20338;-67
2022/07/27 11:16:10;;;;;;;7.25;4.28;;;;;;;43.40;25.55;90697.81;4993283;28;20065;-67
2022/07/27 11:18:40;;;;;;;6.30;5.28;;;;;;;43.55;24.74;90707.34;4993750;28;20036;-67
2022/07/27 11:21:16;;;;;;;4.32;3.92;;;;;;;43.33;24.83;90688.69;4993685;28;20033;-67
2022/07/27 11:23:46;;;;;;;4.97;3.97;;;;;;;43.42;23.94;90695.28;4993603;28;20389;-67
2022/07/27 11:26:12;;;;;;;5.05;4.55;;;;;;;42.86;25.28;90692.81;4993513;28;20037;-67
2022/07/27 11:28:38;;;;;;;5.13;3.97;;;;;;;42.56;25.11;90687.88;4993698;28;20050;-67
2022/07/27 11:31:05;;;;;;;7.03;4.63;;;;;;;41.94;26.17;90687.28;4993243;28;20088;-67
2022/07/27 11:33:31;;;;;;;5.57;4.60;;;;;;;42.32;25.24;90687.72;4993367;28;20057;-67
2022/07/27 11:35:59;;;;;;;4.95;4.30;;;;;;;41.78;24.88;90683.25;4993409;28;20061;-68
2022/07/27 11:38:25;;;;;;;5.38;4.32;;;;;;;42.26;24.85;90679.34;4993340;28;20484;-67